Time;durP1;ratioP1;P1;durP2;ratioP2;P2;SDS_P1;SDS_P2;PMS_P1;PMS_P2;Temp;Humidity;BMP_temperature;BMP_pressure;BME280_temperature;BME280_humidity;BME280_pressure;Samples;Min_cycle;Max_cycle;Signal;HPM_P1;HPM_P2
2023/10/11 00:01:28;;;;;;;15.97;5.77;;;;;;;;;;5054771;28;20228;-74
2023/10/11 00:04:33;;;;;;;13.10;5.63;;;;;;;;;;5055327;28;20185;-75
2023/10/11 00:07:37;;;;;;;18.07;5.80;;;;;;;;;;5054265;28;20547;-74
2023/10/11 00:10:56;;;;;;;15.73;5.83;;;;;;;;;;5055234;28;20193;-75
2023/10/11 00:14:00;;;;;;;13.90;5.40;;;;;;;;;;5042946;28;20181;-75
2023/10/11 00:17:04;;;;;;;16.87;5.80;;;;;;;;;;5054965;28;20188;-75
2023/10/11 00:20:29;;;;;;;15.07;5.47;;;;;;;;;;5054778;28;20546;-76
2023/10/11 00:23:36;;;;;;;17.53;5.43;;;;;;;;;;5031120;28;20207;-77
2023/10/11 00:26:40;;;;;;;16.17;5.60;;;;;;;;;;5054903;28;20212;-75
2023/10/11 00:29:44;;;;;;;13.13;5.03;;;;;;;;;;5042263;28;20197;-76
2023/10/11 00:32:48;;;;;;;12.17;4.70;;;;;;;;;;5053666;28;20228;-76
2023/10/11 00:35:55;;;;;;;11.03;4.90;;;;;;;;;;5053978;28;20184;-75
2023/10/11 00:38:59;;;;;;;10.27;4.80;;;;;;;;;;5053918;28;20543;-75
2023/10/11 00:42:03;;;;;;;10.73;5.43;;;;;;;;;;5054720;28;20216;-75
2023/10/11 00:45:09;;;;;;;10.50;5.00;;;;;;;;;;5042426;28;20662;-76
2023/10/11 00:48:14;;;;;;;18.10;5.77;;;;;;;;;;5042707;28;20209;-74
2023/10/11 00:51:20;;;;;;;16.17;5.63;;;;;;;;;;5042101;28;20232;-76
2023/10/11 00:54:27;;;;;;;18.23;5.80;;;;;;;;;;5042525;28;20193;-75
2023/10/11 00:57:31;;;;;;;14.93;5.37;;;;;;;;;;5041978;28;20545;-76
2023/10/11 01:00:36;;;;;;;12.27;5.13;;;;;;;;;;5042055;28;20184;-76
2023/10/11 01:03:41;;;;;;;12.93;5.33;;;;;;;;;;5053643;28;20187;-76
2023/10/11 01:06:48;;;;;;;18.80;5.00;;;;;;;;;;5054250;28;20208;-76
2023/10/11 01:09:52;;;;;;;14.20;4.87;;;;;;;;;;5053680;28;20199;-76
2023/10/11 01:12:57;;;;;;;13.40;4.90;;;;;;;;;;5053300;28;20228;-74
2023/10/11 01:16:05;;;;;;;11.33;5.17;;;;;;;;;;5041805;28;20205;-74
2023/10/11 01:19:15;;;;;;;10.47;4.77;;;;;;;;;;5053009;28;20197;-74
2023/10/11 01:22:20;;;;;;;15.40;5.07;;;;;;;;;;5041451;28;20237;-76
2023/10/11 01:25:24;;;;;;;11.83;4.50;;;;;;;;;;5053071;28;20194;-74
2023/10/11 01:28:28;;;;;;;12.37;5.00;;;;;;;;;;5053792;28;20184;-76
2023/10/11 01:31:33;;;;;;;18.87;4.70;;;;;;;;;;5053310;28;20559;-74
2023/10/11 01:34:38;;;;;;;11.87;5.10;;;;;;;;;;5052700;28;20187;-76
2023/10/11 01:37:43;;;;;;;18.83;5.53;;;;;;;;;;5052719;28;20188;-76
2023/10/11 01:40:54;;;;;;;13.93;5.50;;;;;;;;;;5041566;28;20196;-76
2023/10/11 01:43:58;;;;;;;16.00;5.70;;;;;;;;;;5030088;28;20199;-74
2023/10/11 01:47:03;;;;;;;17.57;5.60;;;;;;;;;;5052955;28;20219;-75
2023/10/11 01:50:08;;;;;;;15.10;5.40;;;;;;;;;;5041264;28;20180;-76
2023/10/11 01:53:14;;;;;;;13.73;4.73;;;;;;;;;;5041023;28;20674;-76
2023/10/11 01:56:18;;;;;;;11.33;5.17;;;;;;;;;;5052390;28;20180;-76
2023/10/11 01:59:23;;;;;;;14.17;5.37;;;;;;;;;;5052652;28;20666;-76
2023/10/11 02:02:27;;;;;;;14.80;5.30;;;;;;;;;;5041273;28;20235;-76
2023/10/11 02:05:31;;;;;;;12.00;5.20;;;;;;;;;;5041007;28;20193;-76
2023/10/11 02:08:36;;;;;;;16.70;5.17;;;;;;;;;;5036791;28;20207;-75
2023/10/11 02:11:41;;;;;;;16.80;5.73;;;;;;;;;;5052571;28;20215;-76
2023/10/11 02:14:46;;;;;;;15.00;5.10;;;;;;;;;;5040793;28;20184;-76
2023/10/11 02:17:51;;;;;;;13.53;4.87;;;;;;;;;;5040794;28;20176;-76
2023/10/11 02:20:55;;;;;;;12.77;5.20;;;;;;;;;;5052357;28;20189;-76
2023/10/11 02:23:59;;;;;;;14.63;5.80;;;;;;;;;;5040689;28;20188;-76
2023/10/11 02:27:06;;;;;;;14.07;5.90;;;;;;;;;;5052274;28;20212;-75
2023/10/11 02:30:19;;;;;;;14.87;5.13;;;;;;;;;;5041160;28;20184;-75
2023/10/11 02:33:24;;;;;;;19.07;5.37;;;;;;;;;;5040869;28;20189;-76
2023/10/11 02:36:34;;;;;;;11.87;5.10;;;;;;;;;;5041032;28;20176;-76
2023/10/11 02:39:44;;;;;;;15.07;5.47;;;;;;;;;;5052919;28;20195;-76
2023/10/11 02:42:50;;;;;;;14.67;5.40;;;;;;;;;;5052678;28;20233;-76
2023/10/11 02:45:54;;;;;;;13.97;5.77;;;;;;;;;;5052348;28;20192;-75
2023/10/11 02:49:05;;;;;;;17.17;5.43;;;;;;;;;;5040489;28;20184;-75
2023/10/11 02:52:10;;;;;;;12.37;5.60;;;;;;;;;;5040450;28;20225;-74
2023/10/11 02:55:21;;;;;;;10.73;5.10;;;;;;;;;;5040913;28;20652;-75
2023/10/11 02:58:29;;;;;;;11.67;5.40;;;;;;;;;;5053107;28;20189;-75
2023/10/11 03:01:34;;;;;;;13.30;5.53;;;;;;;;;;5052373;28;20227;-74
2023/10/11 03:04:39;;;;;;;11.33;5.57;;;;;;;;;;5051990;28;20208;-75
2023/10/11 03:07:45;;;;;;;13.20;5.87;;;;;;;;;;5051681;28;20221;-74
2023/10/11 03:11:04;;;;;;;16.57;5.53;;;;;;;;;;5040531;28;20538;-76
2023/10/11 03:14:12;;;;;;;15.13;5.70;;;;;;;;;;5051965;28;20189;-75
2023/10/11 03:17:20;;;;;;;15.90;5.83;;;;;;;;;;5040426;28;20187;-76
2023/10/11 03:23:31;;;;;;;21.47;6.37;;;;;;;;;;5052283;28;20216;-76
2023/10/11 03:26:38;;;;;;;11.80;5.27;;;;;;;;;;5052512;28;20223;-75
2023/10/11 03:29:45;;;;;;;16.13;5.63;;;;;;;;;;5055528;28;20647;-76
2023/10/11 03:32:49;;;;;;;16.57;6.17;;;;;;;;;;5054935;28;20233;-75
2023/10/11 03:35:55;;;;;;;14.23;6.03;;;;;;;;;;5056025;28;20546;-75
2023/10/11 03:39:08;;;;;;;13.40;5.47;;;;;;;;;;5055653;28;20205;-76
2023/10/11 03:45:16;;;;;;;15.43;5.57;;;;;;;;;;5054757;28;20195;-75
2023/10/11 03:48:21;;;;;;;12.57;5.70;;;;;;;;;;5043661;28;20225;-75
2023/10/11 03:51:25;;;;;;;15.33;5.40;;;;;;;;;;5055014;28;20219;-76
2023/10/11 03:54:30;;;;;;;14.47;6.23;;;;;;;;;;5054891;28;20187;-75
2023/10/11 03:57:36;;;;;;;15.67;5.50;;;;;;;;;;5043455;28;20226;-75
2023/10/11 04:00:46;;;;;;;14.07;5.43;;;;;;;;;;5055301;28;20193;-75
2023/10/11 04:03:50;;;;;;;14.53;5.60;;;;;;;;;;5054941;28;20183;-74
2023/10/11 04:07:01;;;;;;;16.60;5.53;;;;;;;;;;5055098;28;20228;-74
2023/10/11 04:10:19;;;;;;;18.03;5.17;;;;;;;;;;5054404;28;20203;-75
2023/10/11 04:13:26;;;;;;;13.10;5.23;;;;;;;;;;5055348;28;20183;-75
2023/10/11 04:16:30;;;;;;;16.70;5.93;;;;;;;;;;5055263;28;20189;-76
2023/10/11 04:19:39;;;;;;;17.93;5.67;;;;;;;;;;5054396;28;20207;-75
2023/10/11 04:23:01;;;;;;;15.90;5.50;;;;;;;;;;5043198;28;20244;-76
2023/10/11 04:26:22;;;;;;;14.57;5.20;;;;;;;;;;4993943;28;20202;-76
2023/10/11 04:29:31;;;;;;;14.53;5.00;;;;;;;;;;4995127;28;20186;-76
2023/10/11 04:35:42;;;;;;;16.60;4.80;;;;;;;;;;5015647;28;20186;-76
2023/10/11 04:38:50;;;;;;;15.93;5.50;;;;;;;;;;5015527;28;20189;-76
2023/10/11 04:41:59;;;;;;;14.70;5.23;;;;;;;;;;5014650;28;20275;-75
2023/10/11 04:45:06;;;;;;;12.77;5.30;;;;;;;;;;5015712;28;20193;-75
2023/10/11 04:48:15;;;;;;;11.57;5.20;;;;;;;;;;5010882;28;20225;-75
2023/10/11 04:54:36;;;;;;;16.33;5.10;;;;;;;;;;5015477;28;20188;-75
2023/10/11 04:58:04;;;;;;;9.97;5.10;;;;;;;;;;5002897;28;20203;-75
2023/10/11 05:01:12;;;;;;;13.80;5.47;;;;;;;;;;5003877;28;20218;-74
2023/10/11 05:04:26;;;;;;;14.50;5.47;;;;;;;;;;5014798;28;20192;-74
2023/10/11 05:07:32;;;;;;;17.17;6.10;;;;;;;;;;5017031;28;20240;-75
2023/10/11 05:10:43;;;;;;;17.23;6.03;;;;;;;;;;5015963;28;20196;-75
2023/10/11 05:13:59;;;;;;;13.57;5.10;;;;;;;;;;5014957;28;20275;-74
2023/10/11 05:20:23;;;;;;;18.20;6.10;;;;;;;;;;5015774;28;20210;-76
2023/10/11 05:23:42;;;;;;;10.77;5.43;;;;;;;;;;5015625;28;20212;-75
2023/10/11 05:27:03;;;;;;;9.37;5.03;;;;;;;;;;5004735;28;20186;-76
2023/10/11 05:33:31;;;;;;;14.10;4.93;;;;;;;;;;5002252;28;20189;-76
2023/10/11 05:50:50;;;;;;;10.77;5.67;;;;;;;;;;5002438;28;20193;-76
2023/10/11 05:53:46;;;;;;;17.50;5.97;;;;;;;;;;5013203;28;20197;-76
2023/10/11 05:56:51;;;;;;;28.10;6.50;;;;;;;;;;5014443;28;20200;-75
2023/10/11 05:59:55;;;;;;;17.50;5.97;;;;;;;;;;5015684;28;20194;-76
2023/10/11 06:02:59;;;;;;;17.30;6.90;;;;;;;;;;5016034;28;20580;-74
2023/10/11 06:06:10;;;;;;;15.23;6.13;;;;;;;;;;5016087;28;20193;-75
2023/10/11 06:09:16;;;;;;;17.23;5.77;;;;;;;;;;5015991;28;20186;-74
2023/10/11 06:12:25;;;;;;;18.17;5.63;;;;;;;;;;5016444;28;20224;-75
2023/10/11 06:15:29;;;;;;;18.73;5.43;;;;;;;;;;5004077;28;20189;-75
2023/10/11 06:18:39;;;;;;;17.50;5.30;;;;;;;;;;5015748;28;20185;-75
2023/10/11 06:21:56;;;;;;;9.20;4.40;;;;;;;;;;5015620;28;20229;-75
2023/10/11 06:25:07;;;;;;;12.47;5.40;;;;;;;;;;5003988;28;20208;-74
2023/10/11 06:28:14;;;;;;;10.83;5.50;;;;;;;;;;5014718;28;20217;-75
2023/10/11 06:31:18;;;;;;;16.03;5.10;;;;;;;;;;5015855;28;20223;-76
2023/10/11 06:37:26;;;;;;;11.93;5.50;;;;;;;;;;5015106;28;20185;-75
2023/10/11 06:40:39;;;;;;;13.93;5.20;;;;;;;;;;5014742;28;20703;-75
2023/10/11 06:43:47;;;;;;;13.00;5.20;;;;;;;;;;5002298;28;20197;-75
2023/10/11 06:46:52;;;;;;;13.23;4.57;;;;;;;;;;5002010;28;20659;-74
2023/10/11 06:49:56;;;;;;;13.93;5.00;;;;;;;;;;5014508;28;20220;-75
2023/10/11 06:53:03;;;;;;;13.30;5.33;;;;;;;;;;5013537;28;20236;-75
2023/10/11 06:56:07;;;;;;;10.30;4.37;;;;;;;;;;5011476;28;20576;-75
2023/10/11 06:59:14;;;;;;;12.60;4.67;;;;;;;;;;5007076;28;20691;-75
2023/10/11 07:02:31;;;;;;;12.50;5.53;;;;;;;;;;4983170;28;20222;-74
2023/10/11 07:05:46;;;;;;;13.17;5.10;;;;;;;;;;4996649;28;20186;-76
2023/10/11 07:08:50;;;;;;;8.87;5.23;;;;;;;;;;5015997;28;20727;-74
2023/10/11 07:12:28;;;;;;;15.20;5.43;;;;;;;;;;5010532;28;20228;-75
2023/10/11 07:15:20;;;;;;;18.30;6.00;;;;;;;;;;5017033;28;20197;-76
2023/10/11 07:18:29;;;;;;;21.13;5.80;;;;;;;;;;5015895;28;20210;-76
2023/10/11 07:21:52;;;;;;;19.03;5.77;;;;;;;;;;5017041;28;20590;-76
2023/10/11 07:24:56;;;;;;;17.73;5.40;;;;;;;;;;5016103;28;20221;-76
2023/10/11 07:28:03;;;;;;;12.40;5.13;;;;;;;;;;5016362;28;20231;-75
2023/10/11 07:31:16;;;;;;;13.17;5.23;;;;;;;;;;5001844;28;20228;-75
2023/10/11 07:34:21;;;;;;;12.23;5.33;;;;;;;;;;4992219;28;20709;-75
2023/10/11 07:37:26;;;;;;;17.07;5.57;;;;;;;;;;4996274;28;20189;-75
2023/10/11 07:40:46;;;;;;;16.70;6.17;;;;;;;;;;4997177;28;20518;-76
2023/10/11 07:43:50;;;;;;;24.70;13.27;;;;;;;;;;4997150;28;20201;-76
2023/10/11 07:46:54;;;;;;;36.50;21.80;;;;;;;;;;4992478;28;20204;-77
2023/10/11 07:49:59;;;;;;;58.47;32.90;;;;;;;;;;5014844;28;20212;-76
2023/10/11 07:53:03;;;;;;;26.10;14.73;;;;;;;;;;5004263;28;20227;-76
2023/10/11 07:56:08;;;;;;;18.00;7.93;;;;;;;;;;5015470;28;20548;-77
2023/10/11 07:59:13;;;;;;;20.77;6.17;;;;;;;;;;5016590;28;20250;-74
2023/10/11 08:02:27;;;;;;;9.30;4.57;;;;;;;;;;5015484;28;20241;-75
2023/10/11 08:05:46;;;;;;;12.40;4.73;;;;;;;;;;5016255;28;20182;-75
2023/10/11 08:08:59;;;;;;;15.13;6.13;;;;;;;;;;5015061;28;20224;-76
2023/10/11 08:12:07;;;;;;;17.17;5.83;;;;;;;;;;4981475;28;20738;-76
2023/10/11 08:15:14;;;;;;;14.73;5.70;;;;;;;;;;5015442;28;20186;-76
2023/10/11 08:18:18;;;;;;;11.57;4.70;;;;;;;;;;5015926;28;20186;-77
2023/10/11 08:21:23;;;;;;;14.70;4.80;;;;;;;;;;5015164;28;20236;-76
2023/10/11 08:24:28;;;;;;;11.90;4.60;;;;;;;;;;5003761;28;20220;-76
2023/10/11 08:27:33;;;;;;;9.63;3.77;;;;;;;;;;5014890;28;20188;-76
2023/10/11 08:30:39;;;;;;;17.33;4.90;;;;;;;;;;5004049;28;20186;-76
2023/10/11 08:33:42;;;;;;;14.67;4.00;;;;;;;;;;5014941;28;20186;-76
2023/10/11 08:36:48;;;;;;;16.27;5.47;;;;;;;;;;5015335;28;20209;-76
2023/10/11 08:39:54;;;;;;;8.40;4.17;;;;;;;;;;5010894;28;20205;-76
2023/10/11 08:43:00;;;;;;;17.17;5.87;;;;;;;;;;5014659;28;20561;-76
2023/10/11 08:46:09;;;;;;;12.70;4.10;;;;;;;;;;5012327;28;20218;-76
2023/10/11 08:49:14;;;;;;;17.77;7.23;;;;;;;;;;5015033;28;20604;-75
2023/10/11 08:52:28;;;;;;;11.57;5.10;;;;;;;;;;5014233;28;20304;-76
2023/10/11 08:55:40;;;;;;;13.27;6.57;;;;;;;;;;5013891;28;20701;-76
2023/10/11 08:58:53;;;;;;;14.67;4.97;;;;;;;;;;5015676;28;20566;-75
2023/10/11 09:02:07;;;;;;;17.90;5.73;;;;;;;;;;5014616;28;20229;-76
2023/10/11 09:05:28;;;;;;;14.47;4.60;;;;;;;;;;5014233;28;20219;-76
2023/10/11 09:08:35;;;;;;;27.35;7.40;;;;;;;;;;5014863;28;20724;-77
2023/10/11 09:11:52;;;;;;;112.63;22.40;;;;;;;;;;5014415;28;20221;-76
2023/10/11 09:15:00;;;;;;;21.07;5.67;;;;;;;;;;4995255;28;20201;-76
2023/10/11 09:18:15;;;;;;;11.38;3.58;;;;;;;;;;5005254;28;20313;-76
2023/10/11 09:21:20;;;;;;;17.00;4.72;;;;;;;;;;4995143;28;20232;-76
2023/10/11 09:24:41;;;;;;;15.43;6.88;;;;;;;;;;4983089;28;20236;-76
2023/10/11 09:27:48;;;;;;;29.65;13.25;;;;;;;;;;4994084;28;20191;-76
2023/10/11 09:31:12;;;;;;;16.55;5.60;;;;;;;;;;5002357;28;20206;-76
2023/10/11 09:34:18;;;;;;;15.13;5.22;;;;;;;;;;5014711;28;20670;-76
2023/10/11 09:37:33;;;;;;;14.10;4.50;;;;;;;;;;5002491;28;20182;-75
2023/10/11 09:40:39;;;;;;;12.32;4.47;;;;;;;;;;4998220;28;20218;-76
2023/10/11 09:43:59;;;;;;;12.20;3.92;;;;;;;;;;5001738;28;20693;-75
2023/10/11 09:47:31;;;;;;;18.85;3.47;;;;;;;;;;4994113;28;20224;-75
2023/10/11 09:50:41;;;;;;;28.52;6.28;;;;;;;;;;5013137;28;20223;-76
2023/10/11 09:53:50;;;;;;;93.10;18.13;;;;;;;;;;5014094;28;20220;-76
2023/10/11 09:57:08;;;;;;;27.15;6.30;;;;;;;;;;5014114;28;20663;-76
2023/10/11 10:00:40;;;;;;;12.25;3.38;;;;;;;;;;5013272;28;20245;-76
2023/10/11 10:03:47;;;;;;;13.43;3.85;;;;;;;;;;5014214;28;20522;-77
2023/10/11 10:07:10;;;;;;;13.95;3.67;;;;;;;;;;5013307;28;20192;-76
2023/10/11 10:10:16;;;;;;;13.27;3.40;;;;;;;;;;5012773;28;20220;-79
2023/10/11 10:13:24;;;;;;;16.90;4.00;;;;;;;;;;4994285;28;20192;-77
2023/10/11 10:17:06;;;;;;;16.65;3.60;;;;;;;;;;4995602;28;20190;-77
2023/10/11 10:20:50;;;;;;;11.35;3.13;;;;;;;;;;4995683;28;20202;-78
2023/10/11 10:23:53;;;;;;;12.63;3.45;;;;;;;;;;5003377;28;20230;-78
2023/10/11 10:26:58;;;;;;;8.52;3.33;;;;;;;;;;5013093;28;20574;-77
2023/10/11 10:30:07;;;;;;;8.18;3.15;;;;;;;;;;5013496;28;20221;-77
2023/10/11 10:33:22;;;;;;;11.75;3.63;;;;;;;;;;5013697;28;20189;-77
2023/10/11 10:36:31;;;;;;;13.93;3.17;;;;;;;;;;5012414;28;20675;-77
2023/10/11 10:39:46;;;;;;;10.10;3.13;;;;;;;;;;5016708;28;20564;-77
2023/10/11 10:43:09;;;;;;;19.42;5.40;;;;;;;;;;5005198;28;20252;-77
2023/10/11 10:46:16;;;;;;;14.48;3.80;;;;;;;;;;5017545;28;20194;-77
2023/10/11 10:49:23;;;;;;;22.55;4.57;;;;;;;;;;5005102;28;20224;-77
2023/10/11 10:52:29;;;;;;;8.00;3.15;;;;;;;;;;5016828;28;20278;-77
2023/10/11 10:55:36;;;;;;;10.63;3.60;;;;;;;;;;5016646;28;20205;-78
2023/10/11 10:58:40;;;;;;;14.52;3.47;;;;;;;;;;5012155;28;20548;-77
2023/10/11 11:01:44;;;;;;;11.07;3.00;;;;;;;;;;5017085;28;20221;-77
2023/10/11 11:04:48;;;;;;;11.27;3.58;;;;;;;;;;5016330;28;20205;-76
2023/10/11 11:07:52;;;;;;;13.30;3.35;;;;;;;;;;5017524;28;20193;-77
2023/10/11 11:11:00;;;;;;;17.30;3.78;;;;;;;;;;5017213;28;20192;-77
2023/10/11 11:14:09;;;;;;;10.02;3.67;;;;;;;;;;5005113;28;20194;-77
2023/10/11 11:17:19;;;;;;;11.98;3.78;;;;;;;;;;5016573;28;20185;-77
2023/10/11 11:20:31;;;;;;;12.63;3.60;;;;;;;;;;4993977;28;20185;-77
2023/10/11 11:23:35;;;;;;;15.63;3.58;;;;;;;;;;5016681;28;20217;-77
2023/10/11 11:26:39;;;;;;;9.30;3.63;;;;;;;;;;5017621;28;20198;-77
2023/10/11 11:29:43;;;;;;;15.90;3.28;;;;;;;;;;5016744;28;20220;-77
2023/10/11 11:32:48;;;;;;;13.15;3.13;;;;;;;;;;5017047;28;20226;-77
2023/10/11 11:35:55;;;;;;;12.80;3.28;;;;;;;;;;5017965;28;20196;-77
2023/10/11 11:39:25;;;;;;;15.95;3.97;;;;;;;;;;5005412;28;20194;-77
2023/10/11 11:42:33;;;;;;;13.48;3.80;;;;;;;;;;5016232;28;20216;-77
2023/10/11 11:45:38;;;;;;;15.30;3.47;;;;;;;;;;5016209;28;20681;-77
2023/10/11 11:48:42;;;;;;;13.60;2.90;;;;;;;;;;5014682;28;20214;-77
2023/10/11 11:51:51;;;;;;;11.30;3.08;;;;;;;;;;5016459;28;20229;-78
2023/10/11 11:54:55;;;;;;;13.02;3.63;;;;;;;;;;5015082;28;20713;-77
2023/10/11 11:57:59;;;;;;;12.30;3.58;;;;;;;;;;5017297;28;20732;-78
2023/10/11 12:01:15;;;;;;;11.85;3.28;;;;;;;;;;5015953;28;20197;-77
2023/10/11 12:04:20;;;;;;;11.73;3.25;;;;;;;;;;5016581;28;20190;-77
2023/10/11 12:07:24;;;;;;;11.02;3.42;;;;;;;;;;5008133;28;20698;-77
2023/10/11 12:10:29;;;;;;;11.13;3.08;;;;;;;;;;4996375;28;20227;-77
2023/10/11 12:13:32;;;;;;;12.18;3.83;;;;;;;;;;4996617;28;20637;-77
2023/10/11 12:16:42;;;;;;;11.02;3.35;;;;;;;;;;4995921;28;20197;-77
2023/10/11 12:19:53;;;;;;;15.88;3.15;;;;;;;;;;4996741;28;20245;-77
2023/10/11 12:23:07;;;;;;;14.00;3.22;;;;;;;;;;4995500;28;20228;-78
2023/10/11 12:26:11;;;;;;;14.30;3.35;;;;;;;;;;4996145;28;20191;-77
2023/10/11 12:29:18;;;;;;;12.68;3.17;;;;;;;;;;4997111;28;20225;-77
2023/10/11 12:32:22;;;;;;;14.38;3.67;;;;;;;;;;4996761;28;20240;-77
2023/10/11 12:35:28;;;;;;;15.00;3.13;;;;;;;;;;4995481;28;20655;-77
2023/10/11 12:38:36;;;;;;;10.93;3.67;;;;;;;;;;4996484;28;20195;-78
2023/10/11 12:41:40;;;;;;;16.55;3.35;;;;;;;;;;4996251;28;20718;-77
2023/10/11 12:44:44;;;;;;;11.38;3.08;;;;;;;;;;4996193;28;20194;-77
2023/10/11 12:47:48;;;;;;;16.75;3.17;;;;;;;;;;4995978;28;20186;-77
2023/10/11 12:50:53;;;;;;;11.15;3.65;;;;;;;;;;4985483;28;20221;-78
2023/10/11 12:53:57;;;;;;;13.13;3.35;;;;;;;;;;4997122;28;20198;-77
2023/10/11 12:57:01;;;;;;;8.45;2.80;;;;;;;;;;4996768;28;20193;-78
2023/10/11 13:00:28;;;;;;;12.55;3.40;;;;;;;;;;4996194;28;20189;-77
2023/10/11 13:03:37;;;;;;;16.42;3.40;;;;;;;;;;5008024;28;20236;-77
2023/10/11 13:06:49;;;;;;;11.75;3.20;;;;;;;;;;5014958;28;20191;-77
2023/10/11 13:09:54;;;;;;;17.98;3.53;;;;;;;;;;5014062;28;20239;-76
2023/10/11 13:12:59;;;;;;;14.75;3.17;;;;;;;;;;5002488;28;20240;-77
2023/10/11 13:16:03;;;;;;;14.02;3.83;;;;;;;;;;5014616;28;20201;-77
2023/10/11 13:19:08;;;;;;;9.82;3.00;;;;;;;;;;5013587;28;20193;-77
2023/10/11 13:22:13;;;;;;;16.23;3.80;;;;;;;;;;5014374;28;20228;-77
2023/10/11 13:25:23;;;;;;;8.60;3.13;;;;;;;;;;5020295;28;20200;-77
2023/10/11 13:28:28;;;;;;;9.57;3.92;;;;;;;;;;5014204;28;20186;-77
2023/10/11 13:31:32;;;;;;;11.05;2.90;;;;;;;;;;5014383;28;20213;-77
2023/10/11 13:34:37;;;;;;;12.48;3.17;;;;;;;;;;5011141;28;20214;-77
2023/10/11 13:37:46;;;;;;;11.98;3.13;;;;;;;;;;5014190;28;20195;-76
2023/10/11 13:40:50;;;;;;;12.38;3.08;;;;;;;;;;5013886;28;20209;-76
2023/10/11 13:43:55;;;;;;;18.13;3.80;;;;;;;;;;5013386;28;20257;-77
2023/10/11 13:47:01;;;;;;;13.00;3.42;;;;;;;;;;5014167;28;20188;-76
2023/10/11 13:50:20;;;;;;;15.98;3.28;;;;;;;;;;5013883;28;20692;-77
2023/10/11 13:53:25;;;;;;;11.77;2.95;;;;;;;;;;5012970;28;20200;-76
2023/10/11 13:56:31;;;;;;;12.75;3.40;;;;;;;;;;5013352;28;20646;-76
2023/10/11 13:59:45;;;;;;;13.23;2.92;;;;;;;;;;5013417;28;20190;-76
2023/10/11 14:02:51;;;;;;;9.50;3.53;;;;;;;;;;5013439;28;20217;-76
2023/10/11 14:06:20;;;;;;;14.02;3.13;;;;;;;;;;5013523;28;20208;-76
2023/10/11 14:09:29;;;;;;;19.63;3.72;;;;;;;;;;5014040;28;20180;-76
2023/10/11 14:12:35;;;;;;;13.10;3.30;;;;;;;;;;5012026;28;20227;-77
2023/10/11 14:15:39;;;;;;;15.45;3.05;;;;;;;;;;5013649;28;20554;-76
2023/10/11 14:18:43;;;;;;;10.50;3.17;;;;;;;;;;5013588;28;20556;-77
2023/10/11 14:21:47;;;;;;;14.68;3.65;;;;;;;;;;5011727;28;20230;-76
2023/10/11 14:24:51;;;;;;;17.02;7.28;;;;;;;;;;5013740;28;20214;-76
2023/10/11 14:27:55;;;;;;;21.73;8.50;;;;;;;;;;5013546;28;20192;-76
2023/10/11 14:30:59;;;;;;;20.10;6.60;;;;;;;;;;5012292;28;20584;-76
2023/10/11 14:34:07;;;;;;;10.93;4.45;;;;;;;;;;5013636;28;20186;-76
2023/10/11 14:37:14;;;;;;;18.05;10.75;;;;;;;;;;5001101;28;20178;-76
2023/10/11 14:40:21;;;;;;;16.60;3.97;;;;;;;;;;5012694;28;20211;-77
2023/10/11 14:43:25;;;;;;;9.43;3.63;;;;;;;;;;5012165;28;20214;-77
2023/10/11 14:46:29;;;;;;;15.15;3.28;;;;;;;;;;5013905;28;20188;-78
2023/10/11 14:49:35;;;;;;;14.30;3.78;;;;;;;;;;5013272;28;20191;-76
2023/10/11 14:52:41;;;;;;;6.53;3.08;;;;;;;;;;5014007;28;20235;-77
2023/10/11 14:55:45;;;;;;;13.60;2.85;;;;;;;;;;5013867;28;20622;-76
2023/10/11 14:58:50;;;;;;;10.13;3.53;;;;;;;;;;4990113;28;20198;-77
2023/10/11 15:01:54;;;;;;;11.50;2.72;;;;;;;;;;5012386;28;20225;-77
2023/10/11 15:04:58;;;;;;;11.88;3.17;;;;;;;;;;5013185;28;20191;-77
2023/10/11 15:08:04;;;;;;;9.73;3.47;;;;;;;;;;5013595;28;20199;-77
2023/10/11 15:11:11;;;;;;;5.78;2.85;;;;;;;;;;5013791;28;20581;-77
2023/10/11 15:14:15;;;;;;;10.63;3.22;;;;;;;;;;5013048;28;20188;-77
2023/10/11 15:17:19;;;;;;;14.63;3.53;;;;;;;;;;5012582;28;20181;-77
2023/10/11 15:20:23;;;;;;;10.07;3.00;;;;;;;;;;5013851;28;20179;-77
2023/10/11 15:23:28;;;;;;;8.50;3.10;;;;;;;;;;5002148;28;20226;-77
2023/10/11 15:26:32;;;;;;;10.10;3.43;;;;;;;;;;5004660;28;20189;-76
2023/10/11 15:29:36;;;;;;;9.27;3.03;;;;;;;;;;5016151;28;20667;-76
2023/10/11 15:32:40;;;;;;;19.17;3.50;;;;;;;;;;5015967;28;20228;-77
2023/10/11 15:35:53;;;;;;;11.33;3.20;;;;;;;;;;5016508;28;20534;-76
2023/10/11 15:38:57;;;;;;;13.70;3.67;;;;;;;;;;5016306;28;20195;-76
2023/10/11 15:42:06;;;;;;;8.57;3.40;;;;;;;;;;5015293;28;20218;-76
2023/10/11 15:45:10;;;;;;;8.03;3.30;;;;;;;;;;5015465;28;20193;-76
2023/10/11 15:48:15;;;;;;;8.80;2.90;;;;;;;;;;5015333;28;20191;-76
2023/10/11 15:51:19;;;;;;;13.27;3.80;;;;;;;;;;5015593;28;20241;-76
2023/10/11 15:54:24;;;;;;;12.33;2.73;;;;;;;;;;5015121;28;20199;-76
2023/10/11 15:57:28;;;;;;;13.10;3.07;;;;;;;;;;5003598;28;20202;-76
2023/10/11 16:00:32;;;;;;;32.50;17.50;;;;;;;;;;5015821;28;20188;-76
2023/10/11 16:03:42;;;;;;;102.80;74.63;;;;;;;;;;5015543;28;20660;-76
2023/10/11 16:06:49;;;;;;;90.57;63.13;;;;;;;;;;5014943;28;20195;-76
2023/10/11 16:09:53;;;;;;;46.73;35.07;;;;;;;;;;5014988;28;20199;-77
2023/10/11 16:13:01;;;;;;;37.97;24.73;;;;;;;;;;5003814;28;20233;-76
2023/10/11 16:16:06;;;;;;;39.07;23.70;;;;;;;;;;5015574;28;20194;-77
2023/10/11 16:19:13;;;;;;;28.07;17.30;;;;;;;;;;5015338;28;20193;-76
2023/10/11 16:22:17;;;;;;;24.47;16.43;;;;;;;;;;5014374;28;20220;-77
2023/10/11 16:25:21;;;;;;;27.07;12.63;;;;;;;;;;5020915;28;20221;-76
2023/10/11 16:28:27;;;;;;;28.73;14.23;;;;;;;;;;5003558;28;20517;-76
2023/10/11 16:31:32;;;;;;;16.03;7.03;;;;;;;;;;5015026;28;20248;-77
2023/10/11 16:34:35;;;;;;;23.57;6.30;;;;;;;;;;5014829;28;20185;-77
2023/10/11 16:37:41;;;;;;;22.20;4.67;;;;;;;;;;5016424;28;20192;-79
2023/10/11 16:40:46;;;;;;;17.93;4.33;;;;;;;;;;4997613;28;20191;-77
2023/10/11 16:43:50;;;;;;;12.50;4.13;;;;;;;;;;5003129;28;20194;-77
2023/10/11 16:46:54;;;;;;;10.40;3.43;;;;;;;;;;5014966;28;20657;-77
2023/10/11 16:50:00;;;;;;;15.80;4.03;;;;;;;;;;5014351;28;20189;-78
2023/10/11 16:53:05;;;;;;;9.67;3.33;;;;;;;;;;5016661;28;20228;-78
2023/10/11 16:56:12;;;;;;;9.60;3.47;;;;;;;;;;5017940;28;20185;-78
2023/10/11 16:59:16;;;;;;;9.47;3.30;;;;;;;;;;5005463;28;20182;-77
2023/10/11 17:02:20;;;;;;;13.10;3.40;;;;;;;;;;5016233;28;20221;-78
2023/10/11 17:05:26;;;;;;;13.10;3.30;;;;;;;;;;5015336;28;20190;-77
2023/10/11 17:08:32;;;;;;;7.17;3.27;;;;;;;;;;5014221;28;20193;-77
2023/10/11 17:11:36;;;;;;;6.97;3.03;;;;;;;;;;5002456;28;20569;-76
2023/10/11 17:14:40;;;;;;;11.53;3.57;;;;;;;;;;5013822;28;20186;-77
2023/10/11 17:17:45;;;;;;;12.37;3.27;;;;;;;;;;5006004;28;20196;-78
2023/10/11 17:20:49;;;;;;;9.30;3.70;;;;;;;;;;5014807;28;20177;-77
2023/10/11 17:23:53;;;;;;;10.90;3.63;;;;;;;;;;5002220;28;20213;-77
2023/10/11 17:26:57;;;;;;;10.37;3.27;;;;;;;;;;5014544;28;20197;-77
2023/10/11 17:30:01;;;;;;;16.40;3.57;;;;;;;;;;5013391;28;20579;-77
2023/10/11 17:33:11;;;;;;;10.73;3.20;;;;;;;;;;5014051;28;20222;-77
2023/10/11 17:36:16;;;;;;;7.87;3.23;;;;;;;;;;5002022;28;20544;-77
2023/10/11 17:39:19;;;;;;;8.77;3.57;;;;;;;;;;5013599;28;20182;-77
2023/10/11 17:42:24;;;;;;;13.77;3.57;;;;;;;;;;5013521;28;20209;-77
2023/10/11 17:45:33;;;;;;;8.87;3.23;;;;;;;;;;5002395;28;20278;-77
2023/10/11 17:48:38;;;;;;;9.43;3.00;;;;;;;;;;5002951;28;20181;-77
2023/10/11 17:51:42;;;;;;;11.77;3.80;;;;;;;;;;5000949;28;20237;-78
2023/10/11 17:54:49;;;;;;;8.97;2.87;;;;;;;;;;4992594;28;20212;-78
2023/10/11 17:57:54;;;;;;;14.23;4.00;;;;;;;;;;4986799;28;20182;-78
2023/10/11 18:00:58;;;;;;;11.53;3.30;;;;;;;;;;4996254;28;20195;-79
2023/10/11 18:04:05;;;;;;;12.23;3.53;;;;;;;;;;4995997;28;20197;-77
2023/10/11 18:07:09;;;;;;;13.17;4.07;;;;;;;;;;4996788;28;20190;-77
2023/10/11 18:10:17;;;;;;;11.40;3.67;;;;;;;;;;4985898;28;20665;-78
2023/10/11 18:13:23;;;;;;;12.13;3.67;;;;;;;;;;4993943;28;20178;-78
2023/10/11 18:16:29;;;;;;;14.80;4.50;;;;;;;;;;4986995;28;20213;-77
2023/10/11 18:19:34;;;;;;;11.87;3.60;;;;;;;;;;4999598;28;20182;-78
2023/10/11 18:22:39;;;;;;;13.57;4.03;;;;;;;;;;4999503;28;20581;-78
2023/10/11 18:25:46;;;;;;;10.50;3.43;;;;;;;;;;4997258;28;20193;-78
2023/10/11 18:28:50;;;;;;;14.03;3.50;;;;;;;;;;5000162;28;20186;-79
2023/10/11 18:31:56;;;;;;;14.73;3.50;;;;;;;;;;4997690;28;20240;-77
2023/10/11 18:35:00;;;;;;;10.93;3.77;;;;;;;;;;4986637;28;20594;-77
2023/10/11 18:38:05;;;;;;;7.93;2.97;;;;;;;;;;4999239;28;20186;-77
2023/10/11 18:41:09;;;;;;;9.20;3.67;;;;;;;;;;5001464;28;20221;-79
2023/10/11 18:44:13;;;;;;;9.90;3.77;;;;;;;;;;5009080;28;20210;-78
2023/10/11 18:47:18;;;;;;;17.23;3.13;;;;;;;;;;5015107;28;20213;-78
2023/10/11 18:50:24;;;;;;;7.10;3.17;;;;;;;;;;5017474;28;20655;-77
2023/10/11 18:53:28;;;;;;;9.57;3.63;;;;;;;;;;5005320;28;20177;-76
2023/10/11 18:56:36;;;;;;;18.07;4.40;;;;;;;;;;5005280;28;20185;-77
2023/10/11 18:59:41;;;;;;;16.83;3.53;;;;;;;;;;5019957;28;20185;-76
2023/10/11 19:02:51;;;;;;;16.20;3.77;;;;;;;;;;5021508;28;20220;-75
2023/10/11 19:06:13;;;;;;;12.20;3.60;;;;;;;;;;5020188;28;20185;-76